RYR0599 LEZL-GCFV
Flight info
| Callsign | RYR0599 |
|---|---|
| Flight time | 1h 51m |
| Altitude | 35000 |
| Route | CLANA N857 KORNO UN857 TERTO TERTO8S |
| Aircraft | B38M/M-SDE1FGHILORVWXY/HB1 |
Departure
| Time | 2026-04-25 10:56 |
|---|---|
| Airport | Seville Airport (LEZL) |
Arrival
| Time | 2026-04-25 12:47 |
|---|---|
| Airport | Fuerteventura Airport (GCFV) |
| Time | Latitude | Longitude | Altitude | Speed | Heading |
|---|---|---|---|---|---|
| 2026-04-25 10:22 | 37.42299 | -5.89487 | 96 ft | 0 kts | 98° |
| 2026-04-25 10:43 | 37.42301 | -5.89505 | 98 ft | 4 kts | 96° |
| 2026-04-25 10:44 | 37.42304 | -5.89538 | 97 ft | 4 kts | 94° |
| 2026-04-25 10:44 | 37.42305 | -5.89569 | 96 ft | 3 kts | 100° |
| 2026-04-25 10:44 | 37.42311 | -5.89581 | 96 ft | 0 kts | 143° |
| 2026-04-25 10:48 | 37.42310 | -5.89581 | 96 ft | 1 kts | 142° |
| 2026-04-25 10:48 | 37.42297 | -5.89564 | 97 ft | 4 kts | 135° |
| 2026-04-25 10:49 | 37.42272 | -5.89532 | 96 ft | 6 kts | 135° |
| 2026-04-25 10:49 | 37.42250 | -5.89504 | 97 ft | 7 kts | 135° |
| 2026-04-25 10:49 | 37.42207 | -5.89443 | 99 ft | 6 kts | 118° |
| 2026-04-25 10:49 | 37.42198 | -5.89421 | 100 ft | 2 kts | 141° |
| 2026-04-25 10:50 | 37.42161 | -5.89440 | 100 ft | 6 kts | 222° |
| 2026-04-25 10:50 | 37.42122 | -5.89475 | 100 ft | 8 kts | 205° |
| 2026-04-25 10:50 | 37.42065 | -5.89461 | 100 ft | 9 kts | 140° |
| 2026-04-25 10:50 | 37.42015 | -5.89397 | 101 ft | 11 kts | 134° |
| 2026-04-25 10:51 | 37.41984 | -5.89311 | 102 ft | 12 kts | 94° |
| 2026-04-25 10:51 | 37.41984 | -5.89203 | 102 ft | 13 kts | 89° |
| 2026-04-25 10:51 | 37.41985 | -5.89080 | 103 ft | 15 kts | 89° |
| 2026-04-25 10:51 | 37.41986 | -5.88944 | 104 ft | 16 kts | 89° |
| 2026-04-25 10:52 | 37.41987 | -5.88795 | 105 ft | 18 kts | 90° |
| 2026-04-25 10:52 | 37.41987 | -5.88649 | 106 ft | 17 kts | 89° |
| 2026-04-25 10:52 | 37.41987 | -5.88496 | 107 ft | 18 kts | 90° |
| 2026-04-25 10:52 | 37.41988 | -5.88330 | 108 ft | 20 kts | 89° |
| 2026-04-25 10:53 | 37.41990 | -5.88163 | 108 ft | 18 kts | 89° |
| 2026-04-25 10:53 | 37.41988 | -5.87999 | 109 ft | 19 kts | 91° |
| 2026-04-25 10:53 | 37.41987 | -5.87824 | 110 ft | 21 kts | 90° |
| 2026-04-25 10:53 | 37.41989 | -5.87661 | 111 ft | 19 kts | 89° |
| 2026-04-25 10:54 | 37.41989 | -5.87593 | 112 ft | 5 kts | 93° |
| 2026-04-25 10:54 | 37.41986 | -5.87563 | 112 ft | 6 kts | 101° |
| 2026-04-25 10:54 | 37.41971 | -5.87491 | 113 ft | 6 kts | 127° |
| 2026-04-25 10:54 | 37.41938 | -5.87446 | 113 ft | 9 kts | 144° |
| 2026-04-25 10:55 | 37.41878 | -5.87426 | 118 ft | 8 kts | 188° |
| 2026-04-25 10:55 | 37.41828 | -5.87458 | 117 ft | 8 kts | 213° |
| 2026-04-25 10:55 | 37.41800 | -5.87517 | 118 ft | 9 kts | 264° |
| 2026-04-25 10:55 | 37.41800 | -5.87527 | 118 ft | 0 kts | 269° |
| 2026-04-25 10:56 | 37.41800 | -5.87590 | 117 ft | 31 kts | 270° |
| 2026-04-25 10:56 | 37.41799 | -5.88217 | 108 ft | 110 kts | 270° |
| 2026-04-25 10:56 | 37.41789 | -5.89437 | 200 ft | 165 kts | 269° |
| 2026-04-25 10:56 | 37.41826 | -5.91019 | 734 ft | 182 kts | 270° |
| 2026-04-25 10:57 | 37.42041 | -5.92527 | 1798 ft | 173 kts | 295° |
| 2026-04-25 10:57 | 37.42633 | -5.93850 | 2713 ft | 176 kts | 302° |
| 2026-04-25 10:57 | 37.43324 | -5.95180 | 3493 ft | 188 kts | 304° |
| 2026-04-25 10:57 | 37.43817 | -5.96785 | 4165 ft | 198 kts | 274° |
| 2026-04-25 10:58 | 37.43867 | -5.98467 | 5114 ft | 197 kts | 263° |
| 2026-04-25 10:58 | 37.43265 | -6.00014 | 5714 ft | 208 kts | 220° |
| 2026-04-25 10:58 | 37.41960 | -6.00894 | 6316 ft | 222 kts | 192° |
| 2026-04-25 10:58 | 37.40379 | -6.01105 | 6903 ft | 237 kts | 185° |
| 2026-04-25 10:59 | 37.38681 | -6.01352 | 7458 ft | 256 kts | 186° |
| 2026-04-25 10:59 | 37.36879 | -6.01642 | 8205 ft | 266 kts | 187° |
| 2026-04-25 10:59 | 37.35035 | -6.02184 | 8842 ft | 282 kts | 204° |
| 2026-04-25 10:59 | 37.33437 | -6.03602 | 9831 ft | 281 kts | 218° |
| 2026-04-25 11:00 | 37.31889 | -6.05126 | 10706 ft | 286 kts | 216° |
| 2026-04-25 11:00 | 37.30268 | -6.06676 | 11259 ft | 301 kts | 216° |
| 2026-04-25 11:00 | 37.28550 | -6.08301 | 11802 ft | 315 kts | 216° |
| 2026-04-25 11:00 | 37.26778 | -6.09970 | 12562 ft | 320 kts | 215° |
| 2026-04-25 11:01 | 37.24993 | -6.11650 | 13463 ft | 323 kts | 215° |
| 2026-04-25 11:01 | 37.23176 | -6.13358 | 14213 ft | 328 kts | 215° |
| 2026-04-25 11:01 | 37.21336 | -6.15086 | 14971 ft | 332 kts | 215° |
| 2026-04-25 11:01 | 37.19478 | -6.16829 | 15714 ft | 338 kts | 216° |
| 2026-04-25 11:02 | 37.17598 | -6.18592 | 16419 ft | 342 kts | 216° |
| 2026-04-25 11:02 | 37.15688 | -6.20383 | 17127 ft | 346 kts | 216° |
| 2026-04-25 11:02 | 37.13744 | -6.22201 | 17806 ft | 351 kts | 216° |
| 2026-04-25 11:02 | 37.11771 | -6.24046 | 18482 ft | 355 kts | 216° |
| 2026-04-25 11:03 | 37.09781 | -6.25906 | 19090 ft | 358 kts | 216° |
| 2026-04-25 11:03 | 37.07776 | -6.27779 | 19714 ft | 361 kts | 216° |
| 2026-04-25 11:03 | 37.05763 | -6.29658 | 20328 ft | 363 kts | 216° |
| 2026-04-25 11:03 | 37.03732 | -6.31553 | 20925 ft | 366 kts | 216° |
| 2026-04-25 11:04 | 37.01682 | -6.33465 | 21515 ft | 368 kts | 216° |
| 2026-04-25 11:04 | 36.99615 | -6.35391 | 22110 ft | 371 kts | 216° |
| 2026-04-25 11:04 | 36.97541 | -6.37322 | 22699 ft | 373 kts | 216° |
| 2026-04-25 11:04 | 36.96125 | -6.38639 | 23090 ft | 375 kts | 216° |
| 2026-04-25 11:05 | 36.93345 | -6.41224 | 23801 ft | 379 kts | 216° |
| 2026-04-25 11:05 | 36.91221 | -6.43197 | 24261 ft | 382 kts | 215° |
| 2026-04-25 11:05 | 36.89082 | -6.45183 | 24707 ft | 384 kts | 215° |
| 2026-04-25 11:05 | 36.87623 | -6.46537 | 24996 ft | 386 kts | 214° |
| 2026-04-25 11:06 | 36.85458 | -6.48545 | 25422 ft | 389 kts | 214° |
| 2026-04-25 11:06 | 36.83305 | -6.50540 | 25850 ft | 392 kts | 214° |
| 2026-04-25 11:06 | 36.81111 | -6.52573 | 26274 ft | 394 kts | 213° |
| 2026-04-25 11:06 | 36.78867 | -6.54650 | 26692 ft | 397 kts | 213° |
| 2026-04-25 11:07 | 36.76676 | -6.56676 | 27073 ft | 400 kts | 213° |
| 2026-04-25 11:07 | 36.74432 | -6.58750 | 27485 ft | 403 kts | 213° |
| 2026-04-25 11:07 | 36.72173 | -6.60835 | 27894 ft | 405 kts | 213° |
| 2026-04-25 11:07 | 36.69899 | -6.62935 | 28278 ft | 408 kts | 213° |
| 2026-04-25 11:08 | 36.67609 | -6.65046 | 28653 ft | 411 kts | 212° |
| 2026-04-25 11:08 | 36.65307 | -6.67167 | 29033 ft | 413 kts | 212° |
| 2026-04-25 11:08 | 36.62996 | -6.69294 | 29417 ft | 415 kts | 212° |
| 2026-04-25 11:08 | 36.60659 | -6.71445 | 29768 ft | 418 kts | 212° |
| 2026-04-25 11:09 | 36.58319 | -6.73596 | 30120 ft | 420 kts | 212° |
| 2026-04-25 11:09 | 36.55958 | -6.75765 | 30431 ft | 422 kts | 212° |
| 2026-04-25 11:09 | 36.53591 | -6.77939 | 30758 ft | 424 kts | 213° |
| 2026-04-25 11:09 | 36.51217 | -6.80116 | 31065 ft | 426 kts | 213° |
| 2026-04-25 11:10 | 36.48827 | -6.82306 | 31352 ft | 428 kts | 213° |
| 2026-04-25 11:10 | 36.47235 | -6.83764 | 31551 ft | 429 kts | 213° |
| 2026-04-25 11:10 | 36.44012 | -6.86713 | 31955 ft | 431 kts | 214° |
| 2026-04-25 11:10 | 36.41591 | -6.88927 | 32245 ft | 433 kts | 214° |
| 2026-04-25 11:11 | 36.39158 | -6.91149 | 32583 ft | 433 kts | 214° |
| 2026-04-25 11:11 | 36.36733 | -6.93364 | 32996 ft | 432 kts | 214° |
| 2026-04-25 11:11 | 36.34320 | -6.95565 | 33393 ft | 431 kts | 215° |
| 2026-04-25 11:11 | 36.31903 | -6.97768 | 33762 ft | 431 kts | 215° |
| 2026-04-25 11:12 | 36.29491 | -6.99964 | 34087 ft | 431 kts | 215° |
| 2026-04-25 11:12 | 36.27072 | -7.02166 | 34393 ft | 430 kts | 216° |
| 2026-04-25 11:12 | 36.24656 | -7.04363 | 34673 ft | 431 kts | 216° |
| 2026-04-25 11:12 | 36.22248 | -7.06552 | 34939 ft | 431 kts | 216° |
| 2026-04-25 11:13 | 36.19853 | -7.08725 | 35052 ft | 432 kts | 216° |
| 2026-04-25 11:13 | 36.14998 | -7.13126 | 35060 ft | 430 kts | 217° |
| 2026-04-25 11:14 | 36.10157 | -7.17509 | 35060 ft | 431 kts | 217° |
| 2026-04-25 11:14 | 36.05319 | -7.21881 | 35062 ft | 431 kts | 217° |
| 2026-04-25 11:15 | 36.00510 | -7.26220 | 35060 ft | 432 kts | 217° |
| 2026-04-25 11:15 | 35.95649 | -7.30601 | 35054 ft | 432 kts | 217° |
| 2026-04-25 11:16 | 35.88356 | -7.37160 | 35060 ft | 433 kts | 217° |
| 2026-04-25 11:16 | 35.83512 | -7.41555 | 35050 ft | 432 kts | 221° |
| 2026-04-25 11:17 | 35.78860 | -7.46259 | 35058 ft | 433 kts | 220° |
| 2026-04-25 11:17 | 35.74182 | -7.50922 | 35052 ft | 433 kts | 221° |
| 2026-04-25 11:18 | 35.69488 | -7.55582 | 35060 ft | 433 kts | 221° |
| 2026-04-25 11:18 | 35.64800 | -7.60231 | 35059 ft | 433 kts | 221° |
| 2026-04-25 11:19 | 35.60131 | -7.64850 | 35059 ft | 433 kts | 221° |
| 2026-04-25 11:19 | 35.55433 | -7.69493 | 35050 ft | 433 kts | 221° |
| 2026-04-25 11:20 | 35.50731 | -7.74132 | 35052 ft | 433 kts | 221° |
| 2026-04-25 11:20 | 35.46037 | -7.78757 | 35048 ft | 433 kts | 221° |
| 2026-04-25 11:21 | 35.41340 | -7.83394 | 35053 ft | 433 kts | 222° |
| 2026-04-25 11:21 | 35.36680 | -7.88066 | 35047 ft | 433 kts | 222° |
| 2026-04-25 11:22 | 35.32764 | -7.91980 | 35048 ft | 433 kts | 222° |
| 2026-04-25 11:22 | 35.27341 | -7.97390 | 35048 ft | 432 kts | 222° |
| 2026-04-25 11:23 | 35.22676 | -8.02037 | 35051 ft | 432 kts | 222° |
| 2026-04-25 11:23 | 35.18023 | -8.06664 | 35049 ft | 432 kts | 222° |
| 2026-04-25 11:24 | 35.13357 | -8.11298 | 35048 ft | 432 kts | 222° |
| 2026-04-25 11:24 | 35.08695 | -8.15920 | 35044 ft | 431 kts | 223° |
| 2026-04-25 11:25 | 35.04035 | -8.20532 | 35045 ft | 431 kts | 223° |
| 2026-04-25 11:25 | 34.99368 | -8.25145 | 35041 ft | 431 kts | 223° |
| 2026-04-25 11:26 | 34.94745 | -8.29708 | 35044 ft | 431 kts | 223° |
| 2026-04-25 11:26 | 34.90095 | -8.34291 | 35041 ft | 430 kts | 223° |
| 2026-04-25 11:27 | 34.85437 | -8.38875 | 35043 ft | 430 kts | 223° |
| 2026-04-25 11:27 | 34.81536 | -8.42707 | 35045 ft | 430 kts | 223° |
| 2026-04-25 11:28 | 34.76124 | -8.48017 | 35049 ft | 430 kts | 223° |
| 2026-04-25 11:28 | 34.71465 | -8.52581 | 35042 ft | 430 kts | 224° |
| 2026-04-25 11:29 | 34.66799 | -8.57145 | 35045 ft | 430 kts | 224° |
| 2026-04-25 11:29 | 34.62140 | -8.61696 | 35042 ft | 430 kts | 224° |
| 2026-04-25 11:30 | 34.57470 | -8.66250 | 35042 ft | 430 kts | 224° |
| 2026-04-25 11:30 | 34.52806 | -8.70792 | 35041 ft | 430 kts | 224° |
| 2026-04-25 11:31 | 34.48132 | -8.75338 | 35043 ft | 430 kts | 224° |
| 2026-04-25 11:31 | 34.43451 | -8.79867 | 35040 ft | 430 kts | 223° |
| 2026-04-25 11:32 | 34.38770 | -8.84371 | 35040 ft | 430 kts | 224° |
| 2026-04-25 11:32 | 34.34108 | -8.88852 | 35041 ft | 430 kts | 224° |
| 2026-04-25 11:33 | 34.29388 | -8.93382 | 35042 ft | 430 kts | 223° |
| 2026-04-25 11:33 | 34.24733 | -8.97843 | 35041 ft | 430 kts | 223° |
| 2026-04-25 11:34 | 34.20041 | -9.02333 | 35036 ft | 430 kts | 223° |
| 2026-04-25 11:34 | 34.15359 | -9.06807 | 35035 ft | 430 kts | 223° |
| 2026-04-25 11:35 | 34.10664 | -9.11287 | 35038 ft | 430 kts | 223° |
| 2026-04-25 11:35 | 34.05976 | -9.15754 | 35037 ft | 429 kts | 223° |
| 2026-04-25 11:36 | 34.01284 | -9.20218 | 35042 ft | 429 kts | 223° |
| 2026-04-25 11:36 | 33.96627 | -9.24642 | 35045 ft | 429 kts | 223° |
| 2026-04-25 11:37 | 33.91936 | -9.29093 | 35036 ft | 429 kts | 223° |
| 2026-04-25 11:37 | 33.87244 | -9.33537 | 35037 ft | 429 kts | 223° |
| 2026-04-25 11:38 | 33.82549 | -9.37979 | 35035 ft | 429 kts | 223° |
| 2026-04-25 11:38 | 33.77862 | -9.42407 | 35035 ft | 428 kts | 223° |
| 2026-04-25 11:39 | 33.73175 | -9.46828 | 35035 ft | 428 kts | 223° |
| 2026-04-25 11:39 | 33.68491 | -9.51240 | 35032 ft | 428 kts | 223° |
| 2026-04-25 11:40 | 33.63797 | -9.55655 | 35036 ft | 428 kts | 223° |
| 2026-04-25 11:40 | 33.59116 | -9.60051 | 35036 ft | 428 kts | 222° |
| 2026-04-25 11:41 | 33.54430 | -9.64448 | 35043 ft | 427 kts | 222° |
| 2026-04-25 11:41 | 33.49753 | -9.68827 | 35038 ft | 427 kts | 222° |
| 2026-04-25 11:42 | 33.45069 | -9.73208 | 35038 ft | 427 kts | 222° |
| 2026-04-25 11:42 | 33.40397 | -9.77571 | 35032 ft | 426 kts | 222° |
| 2026-04-25 11:43 | 33.35719 | -9.81935 | 35034 ft | 426 kts | 222° |
| 2026-04-25 11:43 | 33.31047 | -9.86286 | 35033 ft | 426 kts | 222° |
| 2026-04-25 11:44 | 33.26371 | -9.90634 | 35025 ft | 425 kts | 220° |
| 2026-04-25 11:44 | 33.21710 | -9.94963 | 35037 ft | 424 kts | 220° |
| 2026-04-25 11:45 | 33.17055 | -9.99281 | 35036 ft | 424 kts | 220° |
| 2026-04-25 11:45 | 33.12395 | -10.03598 | 35037 ft | 424 kts | 219° |
| 2026-04-25 11:46 | 33.07737 | -10.07908 | 35036 ft | 423 kts | 219° |
| 2026-04-25 11:46 | 33.03082 | -10.12209 | 35037 ft | 423 kts | 219° |
| 2026-04-25 11:47 | 32.98421 | -10.16498 | 35037 ft | 423 kts | 219° |
| 2026-04-25 11:47 | 32.93800 | -10.20748 | 35029 ft | 423 kts | 219° |
| 2026-04-25 11:48 | 32.89118 | -10.25048 | 35032 ft | 422 kts | 219° |
| 2026-04-25 11:48 | 32.84491 | -10.29294 | 35033 ft | 422 kts | 219° |
| 2026-04-25 11:49 | 32.79841 | -10.33553 | 35033 ft | 422 kts | 219° |
| 2026-04-25 11:49 | 32.75184 | -10.37813 | 35033 ft | 422 kts | 219° |
| 2026-04-25 11:50 | 32.70540 | -10.42055 | 35034 ft | 421 kts | 219° |
| 2026-04-25 11:50 | 32.65892 | -10.46295 | 35034 ft | 421 kts | 219° |
| 2026-04-25 11:51 | 32.61251 | -10.50524 | 35036 ft | 421 kts | 219° |
| 2026-04-25 11:51 | 32.56609 | -10.54748 | 35033 ft | 420 kts | 219° |
| 2026-04-25 11:52 | 32.51974 | -10.58959 | 35032 ft | 420 kts | 219° |
| 2026-04-25 11:52 | 32.47335 | -10.63169 | 35032 ft | 420 kts | 219° |
| 2026-04-25 11:53 | 32.42699 | -10.67369 | 35029 ft | 419 kts | 218° |
| 2026-04-25 11:53 | 32.38075 | -10.71554 | 35030 ft | 418 kts | 218° |
| 2026-04-25 11:54 | 32.33457 | -10.75729 | 35028 ft | 418 kts | 218° |
| 2026-04-25 11:55 | 32.27304 | -10.81281 | 35027 ft | 417 kts | 218° |
| 2026-04-25 11:55 | 32.22693 | -10.85436 | 35030 ft | 417 kts | 218° |
| 2026-04-25 11:56 | 32.18084 | -10.89585 | 35031 ft | 417 kts | 218° |
| 2026-04-25 11:56 | 32.13473 | -10.93728 | 35027 ft | 416 kts | 218° |
| 2026-04-25 11:57 | 32.08862 | -10.97866 | 35027 ft | 416 kts | 218° |
| 2026-04-25 11:57 | 32.04250 | -11.02000 | 35027 ft | 416 kts | 218° |
| 2026-04-25 11:58 | 31.99643 | -11.06125 | 35025 ft | 416 kts | 218° |
| 2026-04-25 11:58 | 31.95043 | -11.10238 | 35026 ft | 416 kts | 218° |
| 2026-04-25 11:59 | 31.90420 | -11.14365 | 35025 ft | 417 kts | 218° |
| 2026-04-25 11:59 | 31.85781 | -11.18503 | 35027 ft | 419 kts | 217° |
| 2026-04-25 12:00 | 31.78816 | -11.24706 | 35022 ft | 419 kts | 217° |
| 2026-04-25 12:01 | 31.71830 | -11.30934 | 35029 ft | 421 kts | 217° |
| 2026-04-25 12:01 | 31.67194 | -11.35066 | 35019 ft | 421 kts | 217° |
| 2026-04-25 12:02 | 31.60199 | -11.41292 | 35021 ft | 421 kts | 217° |
| 2026-04-25 12:02 | 31.55517 | -11.45453 | 35025 ft | 421 kts | 217° |
| 2026-04-25 12:03 | 31.50855 | -11.49591 | 35021 ft | 420 kts | 217° |
| 2026-04-25 12:03 | 31.46198 | -11.53720 | 35022 ft | 420 kts | 217° |
| 2026-04-25 12:04 | 31.41550 | -11.57834 | 35021 ft | 419 kts | 217° |
| 2026-04-25 12:04 | 31.36908 | -11.61939 | 35021 ft | 418 kts | 217° |
| 2026-04-25 12:05 | 31.32294 | -11.66013 | 35024 ft | 417 kts | 217° |
| 2026-04-25 12:05 | 31.27669 | -11.70092 | 35023 ft | 416 kts | 217° |
| 2026-04-25 12:06 | 31.23044 | -11.74165 | 35025 ft | 415 kts | 217° |
| 2026-04-25 12:06 | 31.18427 | -11.78227 | 35028 ft | 415 kts | 217° |
| 2026-04-25 12:07 | 31.13814 | -11.82280 | 35027 ft | 415 kts | 217° |
| 2026-04-25 12:07 | 31.09201 | -11.86328 | 35022 ft | 415 kts | 217° |
| 2026-04-25 12:08 | 31.04585 | -11.90373 | 35026 ft | 415 kts | 217° |
| 2026-04-25 12:08 | 30.99960 | -11.94422 | 35025 ft | 415 kts | 216° |
| 2026-04-25 12:09 | 30.95338 | -11.98463 | 35029 ft | 416 kts | 217° |
| 2026-04-25 12:09 | 30.90699 | -12.02513 | 35026 ft | 417 kts | 217° |
| 2026-04-25 12:10 | 30.86042 | -12.06575 | 35029 ft | 418 kts | 217° |
| 2026-04-25 12:10 | 30.81416 | -12.10604 | 35028 ft | 419 kts | 217° |
| 2026-04-25 12:11 | 30.76756 | -12.14658 | 35029 ft | 419 kts | 217° |
| 2026-04-25 12:11 | 30.72080 | -12.18721 | 35031 ft | 420 kts | 217° |
| 2026-04-25 12:12 | 30.68162 | -12.22121 | 35029 ft | 420 kts | 217° |
| 2026-04-25 12:12 | 30.62710 | -12.26848 | 35030 ft | 421 kts | 217° |
| 2026-04-25 12:13 | 30.58027 | -12.30902 | 35034 ft | 421 kts | 217° |
| 2026-04-25 12:13 | 30.53329 | -12.34965 | 35034 ft | 421 kts | 217° |
| 2026-04-25 12:14 | 30.48617 | -12.39023 | 35029 ft | 421 kts | 217° |
| 2026-04-25 12:14 | 30.43918 | -12.43062 | 35034 ft | 421 kts | 217° |
| 2026-04-25 12:15 | 30.39217 | -12.47099 | 35034 ft | 421 kts | 217° |
| 2026-04-25 12:15 | 30.34510 | -12.51135 | 35034 ft | 420 kts | 217° |
| 2026-04-25 12:16 | 30.29814 | -12.55158 | 35032 ft | 420 kts | 218° |
| 2026-04-25 12:16 | 30.25118 | -12.59176 | 35037 ft | 420 kts | 218° |
| 2026-04-25 12:17 | 30.20412 | -12.63197 | 35038 ft | 421 kts | 218° |
| 2026-04-25 12:17 | 30.15699 | -12.67220 | 35040 ft | 421 kts | 218° |
| 2026-04-25 12:18 | 30.11018 | -12.71202 | 35040 ft | 421 kts | 216° |
| 2026-04-25 12:18 | 30.05927 | -12.74584 | 35036 ft | 423 kts | 211° |
| 2026-04-25 12:19 | 29.98223 | -12.79526 | 35041 ft | 423 kts | 211° |
| 2026-04-25 12:20 | 29.93068 | -12.82819 | 35040 ft | 423 kts | 211° |
| 2026-04-25 12:20 | 29.87915 | -12.86107 | 35039 ft | 423 kts | 211° |
| 2026-04-25 12:21 | 29.82769 | -12.89387 | 35037 ft | 423 kts | 211° |
| 2026-04-25 12:21 | 29.77609 | -12.92671 | 35032 ft | 418 kts | 211° |
| 2026-04-25 12:21 | 29.75113 | -12.94259 | 34950 ft | 405 kts | 211° |
| 2026-04-25 12:22 | 29.72687 | -12.95801 | 34844 ft | 392 kts | 211° |
| 2026-04-25 12:22 | 29.70318 | -12.97305 | 34566 ft | 385 kts | 211° |
| 2026-04-25 12:22 | 29.67970 | -12.98795 | 34107 ft | 388 kts | 211° |
| 2026-04-25 12:22 | 29.65603 | -13.00297 | 33527 ft | 389 kts | 211° |
| 2026-04-25 12:23 | 29.63238 | -13.01797 | 33040 ft | 386 kts | 211° |
| 2026-04-25 12:23 | 29.60902 | -13.03278 | 32620 ft | 382 kts | 211° |
| 2026-04-25 12:23 | 29.58579 | -13.04750 | 32195 ft | 378 kts | 211° |
| 2026-04-25 12:23 | 29.56290 | -13.06199 | 31762 ft | 375 kts | 211° |
| 2026-04-25 12:24 | 29.54043 | -13.07621 | 31333 ft | 372 kts | 211° |
| 2026-04-25 12:24 | 29.51791 | -13.09046 | 30913 ft | 369 kts | 211° |
| 2026-04-25 12:24 | 29.49550 | -13.10463 | 30486 ft | 366 kts | 211° |
| 2026-04-25 12:24 | 29.47323 | -13.11870 | 30045 ft | 364 kts | 211° |
| 2026-04-25 12:25 | 29.45106 | -13.13270 | 29562 ft | 362 kts | 211° |
| 2026-04-25 12:25 | 29.42918 | -13.14651 | 29164 ft | 358 kts | 211° |
| 2026-04-25 12:25 | 29.40728 | -13.16034 | 28669 ft | 360 kts | 211° |
| 2026-04-25 12:25 | 29.38536 | -13.17416 | 28159 ft | 359 kts | 211° |
| 2026-04-25 12:26 | 29.36335 | -13.18782 | 27621 ft | 361 kts | 208° |
| 2026-04-25 12:26 | 29.34053 | -13.20022 | 27084 ft | 363 kts | 208° |
| 2026-04-25 12:26 | 29.31780 | -13.21271 | 26583 ft | 364 kts | 208° |
| 2026-04-25 12:26 | 29.29499 | -13.22533 | 26064 ft | 364 kts | 208° |
| 2026-04-25 12:27 | 29.27228 | -13.23790 | 25568 ft | 363 kts | 208° |
| 2026-04-25 12:27 | 29.24950 | -13.25053 | 25077 ft | 363 kts | 208° |
| 2026-04-25 12:27 | 29.22704 | -13.26296 | 24599 ft | 363 kts | 208° |
| 2026-04-25 12:27 | 29.20426 | -13.27552 | 24128 ft | 363 kts | 208° |
| 2026-04-25 12:28 | 29.18154 | -13.28796 | 23662 ft | 362 kts | 208° |
| 2026-04-25 12:28 | 29.15878 | -13.30042 | 23121 ft | 362 kts | 208° |
| 2026-04-25 12:28 | 29.13637 | -13.31269 | 22586 ft | 352 kts | 208° |
| 2026-04-25 12:28 | 29.11464 | -13.32458 | 22072 ft | 342 kts | 208° |
| 2026-04-25 12:29 | 29.09339 | -13.33621 | 21555 ft | 334 kts | 208° |
| 2026-04-25 12:29 | 29.07266 | -13.34754 | 21067 ft | 328 kts | 208° |
| 2026-04-25 12:29 | 29.05220 | -13.35872 | 20554 ft | 323 kts | 208° |
| 2026-04-25 12:29 | 29.03211 | -13.36970 | 20059 ft | 319 kts | 208° |
| 2026-04-25 12:30 | 29.01885 | -13.37694 | 19732 ft | 317 kts | 208° |
| 2026-04-25 12:30 | 28.99239 | -13.39138 | 19090 ft | 314 kts | 208° |
| 2026-04-25 12:30 | 28.97272 | -13.40212 | 18620 ft | 314 kts | 208° |
| 2026-04-25 12:30 | 28.95284 | -13.41296 | 18103 ft | 318 kts | 208° |
| 2026-04-25 12:31 | 28.93281 | -13.42388 | 17565 ft | 320 kts | 208° |
| 2026-04-25 12:31 | 28.91272 | -13.43482 | 17028 ft | 322 kts | 208° |
| 2026-04-25 12:31 | 28.89247 | -13.44584 | 16540 ft | 322 kts | 208° |
| 2026-04-25 12:31 | 28.87220 | -13.45689 | 16066 ft | 322 kts | 208° |
| 2026-04-25 12:32 | 28.85200 | -13.46788 | 15605 ft | 322 kts | 208° |
| 2026-04-25 12:32 | 28.83177 | -13.47888 | 15158 ft | 322 kts | 208° |
| 2026-04-25 12:32 | 28.81154 | -13.48988 | 14701 ft | 322 kts | 208° |
| 2026-04-25 12:32 | 28.79134 | -13.50086 | 14265 ft | 322 kts | 208° |
| 2026-04-25 12:33 | 28.77136 | -13.51171 | 13826 ft | 322 kts | 208° |
| 2026-04-25 12:33 | 28.75114 | -13.52270 | 13333 ft | 321 kts | 208° |
| 2026-04-25 12:33 | 28.73101 | -13.53362 | 12860 ft | 321 kts | 208° |
| 2026-04-25 12:33 | 28.71059 | -13.54470 | 12367 ft | 321 kts | 208° |
| 2026-04-25 12:34 | 28.69045 | -13.55562 | 11884 ft | 321 kts | 208° |
| 2026-04-25 12:34 | 28.67059 | -13.56639 | 11432 ft | 320 kts | 208° |
| 2026-04-25 12:34 | 28.65046 | -13.57729 | 10970 ft | 320 kts | 207° |
| 2026-04-25 12:34 | 28.64360 | -13.58100 | 10814 ft | 320 kts | 208° |
| 2026-04-25 12:35 | 28.61012 | -13.59913 | 10068 ft | 320 kts | 208° |
| 2026-04-25 12:35 | 28.59007 | -13.60999 | 9568 ft | 320 kts | 207° |
| 2026-04-25 12:35 | 28.56999 | -13.62085 | 9065 ft | 320 kts | 207° |
| 2026-04-25 12:35 | 28.55014 | -13.63159 | 8584 ft | 311 kts | 207° |
| 2026-04-25 12:36 | 28.53037 | -13.64068 | 8094 ft | 303 kts | 193° |
| 2026-04-25 12:36 | 28.50971 | -13.64303 | 7624 ft | 296 kts | 185° |
| 2026-04-25 12:36 | 28.48943 | -13.64484 | 7135 ft | 290 kts | 185° |
| 2026-04-25 12:36 | 28.46953 | -13.64669 | 6679 ft | 284 kts | 185° |
| 2026-04-25 12:37 | 28.44991 | -13.64853 | 6190 ft | 280 kts | 185° |
| 2026-04-25 12:37 | 28.43074 | -13.65035 | 5776 ft | 273 kts | 185° |
| 2026-04-25 12:37 | 28.41212 | -13.65209 | 5388 ft | 266 kts | 185° |
| 2026-04-25 12:37 | 28.39387 | -13.65382 | 5006 ft | 262 kts | 185° |
| 2026-04-25 12:38 | 28.37571 | -13.65552 | 4684 ft | 261 kts | 185° |
| 2026-04-25 12:38 | 28.35770 | -13.65722 | 4412 ft | 258 kts | 185° |
| 2026-04-25 12:38 | 28.34023 | -13.66070 | 4131 ft | 253 kts | 200° |
| 2026-04-25 12:38 | 28.32461 | -13.66944 | 3897 ft | 247 kts | 214° |
| 2026-04-25 12:39 | 28.31090 | -13.68072 | 3660 ft | 242 kts | 220° |
| 2026-04-25 12:39 | 28.29805 | -13.69292 | 3414 ft | 238 kts | 224° |
| 2026-04-25 12:39 | 28.28628 | -13.70561 | 3226 ft | 230 kts | 229° |
| 2026-04-25 12:39 | 28.27570 | -13.71890 | 3043 ft | 223 kts | 233° |
| 2026-04-25 12:40 | 28.26633 | -13.73263 | 2851 ft | 217 kts | 238° |
| 2026-04-25 12:40 | 28.25812 | -13.74657 | 2662 ft | 210 kts | 243° |
| 2026-04-25 12:40 | 28.25103 | -13.76082 | 2512 ft | 203 kts | 247° |
| 2026-04-25 12:40 | 28.24505 | -13.77524 | 2490 ft | 202 kts | 251° |
| 2026-04-25 12:41 | 28.23997 | -13.79003 | 2497 ft | 200 kts | 255° |
| 2026-04-25 12:41 | 28.23587 | -13.80517 | 2491 ft | 201 kts | 259° |
| 2026-04-25 12:41 | 28.23277 | -13.82059 | 2499 ft | 199 kts | 264° |
| 2026-04-25 12:41 | 28.23126 | -13.83612 | 2507 ft | 198 kts | 270° |
| 2026-04-25 12:42 | 28.23210 | -13.85115 | 2453 ft | 190 kts | 296° |
| 2026-04-25 12:42 | 28.23405 | -13.85558 | 2442 ft | 185 kts | 308° |
| 2026-04-25 12:42 | 28.25172 | -13.86732 | 2507 ft | 180 kts | 354° |
| 2026-04-25 12:42 | 28.26413 | -13.86807 | 2519 ft | 181 kts | 359° |
| 2026-04-25 12:43 | 28.27692 | -13.86829 | 2501 ft | 182 kts | 359° |
| 2026-04-25 12:43 | 28.28958 | -13.86829 | 2502 ft | 182 kts | 1° |
| 2026-04-25 12:43 | 28.31370 | -13.86818 | 2475 ft | 163 kts | 0° |
| 2026-04-25 12:44 | 28.32488 | -13.86786 | 2315 ft | 159 kts | 1° |
| 2026-04-25 12:44 | 28.33572 | -13.86755 | 2127 ft | 152 kts | 2° |
| 2026-04-25 12:44 | 28.35479 | -13.86692 | 1790 ft | 123 kts | 2° |
| 2026-04-25 12:45 | 28.36331 | -13.86664 | 1611 ft | 121 kts | 1° |
| 2026-04-25 12:45 | 28.37177 | -13.86637 | 1457 ft | 125 kts | 1° |
| 2026-04-25 12:45 | 28.38906 | -13.86570 | 1115 ft | 124 kts | 1° |
| 2026-04-25 12:46 | 28.39748 | -13.86570 | 959 ft | 121 kts | 4° |
| 2026-04-25 12:46 | 28.40325 | -13.86539 | 843 ft | 124 kts | 4° |
| 2026-04-25 12:46 | 28.41177 | -13.86510 | 692 ft | 123 kts | 6° |
| 2026-04-25 12:46 | 28.42025 | -13.86476 | 524 ft | 121 kts | 5° |
| 2026-04-25 12:47 | 28.42870 | -13.86453 | 360 ft | 122 kts | 4° |
| 2026-04-25 12:47 | 28.43729 | -13.86426 | 206 ft | 123 kts | 4° |
| 2026-04-25 12:47 | 28.44560 | -13.86398 | 70 ft | 113 kts | 2° |
| 2026-04-25 12:47 | 28.45027 | -13.86380 | 76 ft | 20 kts | 2° |
| 2026-04-25 12:48 | 28.45206 | -13.86373 | 82 ft | 28 kts | 1° |
| 2026-04-25 12:48 | 28.45397 | -13.86367 | 84 ft | 23 kts | 1° |
| 2026-04-25 12:48 | 28.45543 | -13.86364 | 85 ft | 20 kts | 358° |
| 2026-04-25 12:48 | 28.45654 | -13.86395 | 92 ft | 14 kts | 310° |
| 2026-04-25 12:49 | 28.45661 | -13.86479 | 93 ft | 9 kts | 269° |
| 2026-04-25 12:49 | 28.45657 | -13.86534 | 98 ft | 5 kts | 252° |
| 2026-04-25 12:49 | 28.45612 | -13.86558 | 100 ft | 10 kts | 188° |
| 2026-04-25 12:49 | 28.45521 | -13.86562 | 98 ft | 15 kts | 182° |
| 2026-04-25 12:50 | 28.45430 | -13.86566 | 98 ft | 11 kts | 182° |
| 2026-04-25 12:50 | 28.45372 | -13.86606 | 100 ft | 10 kts | 259° |
| 2026-04-25 12:50 | 28.45374 | -13.86689 | 101 ft | 11 kts | 271° |
| 2026-04-25 12:50 | 28.45329 | -13.86733 | 101 ft | 10 kts | 187° |
| 2026-04-25 12:51 | 28.45271 | -13.86764 | 101 ft | 7 kts | 250° |
| 2026-04-25 12:51 | 28.45270 | -13.86809 | 101 ft | 6 kts | 271° |
| 2026-04-25 12:51 | 28.45271 | -13.86838 | 101 ft | 0 kts | 271° |